Saturday, September 20, 2014, 4:00 PM EDT
Back to Local

KPTW, Pottstown Limerick Airport

Location: Royersford, PA, United States Lat: 40.233
Local Time: 4:00 PM EDT (20:00 GMT) Lon: -75.55
Time Zone: US/Eastern Elev: 291 ft

Show me the last for .
Show Decoded

2014-09-20 13:54 METAR KPTW 201754Z AUTO VRB05KT 10SM BKN040 23/14 A3019 RMK AO2 SLP220 T02330139
                 10233 20139 58030 =
2014-09-20 12:54 METAR KPTW 201654Z AUTO 19007KT 10SM BKN036 23/14 A3023 RMK AO2 SLP232 T02280144
                 =
2014-09-20 11:54 METAR KPTW 201554Z AUTO VRB05KT 10SM SCT028 BKN036 22/14 A3026 RMK AO2 SLP244
                 T02220144 =
2014-09-20 10:54 METAR KPTW 201454Z AUTO VRB05KT 10SM BKN030 20/14 A3028 RMK AO2 SLP252 T02000144
                 56006 =
2014-09-20 10:11 METAR KPTW 201411Z AUTO 00000KT 10SM SCT029 19/14 A3029 RMK AO2 T01890144 =
2014-09-20 08:54 METAR KPTW 201254Z AUTO 00000KT 10SM OVC030 15/13 A3030 RMK AO2 SLP257 T01500128
                 =
2014-09-20 08:51 METAR KPTW 201251Z AUTO 09003KT 10SM OVC030 16/13 A3030 RMK AO2 =
2014-09-20 07:54 METAR KPTW 201154Z AUTO 00000KT 9SM BKN024 OVC060 14/12 A3030 RMK AO2 SLP259
                 T01390122 10139 20122 56004 =
2014-09-20 07:30 METAR KPTW 201130Z AUTO 00000KT 6SM BR BKN024 BKN033 BKN065 13/12 A3030 RMK AO2
                 T01280117 =
2014-09-20 06:54 METAR KPTW 201054Z AUTO 00000KT 8SM SCT027 13/11 A3030 RMK AO2 SLP259 T01280111
                 =
2014-09-20 05:54 METAR KPTW 200954Z AUTO 05003KT 10SM BKN025 OVC085 13/12 A3031 RMK AO2 SLP261
                 T01330117 =
2014-09-20 05:22 METAR KPTW 200922Z AUTO 06003KT 10SM SCT027 BKN035 OVC085 13/12 A3031 RMK AO2
                 T01330117 =
2014-09-20 04:54 METAR KPTW 200854Z AUTO 07003KT 9SM BKN029 BKN034 OVC085 13/12 A3031 RMK AO2
                 SLP262 T01280117 51001 =
2014-09-20 04:50 METAR KPTW 200850Z AUTO 07003KT 9SM BKN029 OVC085 13/12 A3031 RMK AO2 =
2014-09-20 04:10 METAR KPTW 200810Z AUTO 00000KT 9SM FEW023 SCT030 OVC035 13/12 A3031 RMK AO2
                 T01280117 =
2014-09-20 03:54 METAR KPTW 200754Z AUTO 00000KT 10SM FEW023 BKN029 OVC080 13/12 A3031 RMK AO2
                 SLP263 T01330117 =
2014-09-20 02:54 METAR KPTW 200654Z AUTO 00000KT 9SM BKN028 BKN065 OVC080 12/11 A3031 RMK AO2
                 SLP262 T01220111 =
2014-09-20 01:54 METAR KPTW 200554Z AUTO 00000KT 9SM SCT029 BKN034 OVC065 12/11 A3032 RMK AO2
                 SLP265 T01220111 10150 20111 56015 =
2014-09-20 01:40 METAR KPTW 200540Z AUTO 05003KT 9SM SCT026 OVC034 12/11 A3032 RMK AO2 T01220111
                 =
2014-09-20 00:54 METAR KPTW 200454Z AUTO 00000KT 9SM BKN023 OVC030 11/11 A3034 RMK AO2 SLP270
                 T01110106 402000089 =
2014-09-20 00:24 METAR KPTW 200424Z AUTO 00000KT 10SM SCT020 BKN025 12/11 A3034 RMK AO2 T01170106
                 =
2014-09-19 23:54 METAR KPTW 200354Z AUTO 00000KT 10SM FEW070 12/11 A3035 RMK AO2 SLP274 T01220106
                 =
2014-09-19 22:54 METAR KPTW 200254Z AUTO 00000KT 10SM CLR 13/11 A3036 RMK AO2 SLP279 T01280106
                 51009 =
2014-09-19 21:54 METAR KPTW 200154Z AUTO 00000KT 10SM CLR 13/11 A3036 RMK AO2 SLP279 T01330106 =
2014-09-19 20:54 METAR KPTW 200054Z AUTO VRB03KT 10SM CLR 14/11 A3036 RMK AO2 SLP277 T01390106 =
2014-09-19 19:54 METAR KPTW 192354Z AUTO 00000KT 10SM CLR 15/11 A3034 RMK AO2 SLP270 T01500106
                 10200 20150 53009 =
2014-09-19 18:54 METAR KPTW 192254Z AUTO VRB03KT 10SM CLR 17/11 A3032 RMK AO2 SLP264 T01670106 =
2014-09-19 17:54 METAR KPTW 192154Z AUTO VRB05KT 10SM BKN049 19/10 A3031 RMK AO2 SLP262 T01890100
                 =
2014-09-19 16:54 METAR KPTW 192054Z AUTO VRB04KT 10SM CLR 19/09 A3031 RMK AO2 SLP261 T01940094
                 56006 =

Support USWX by starting your Amazon purchase here.